sensor_id;sensor_type;location;lat;lon;timestamp;pressure;altitude;pressure_sealevel;temperature;humidity
39411;BME280;26579;43.238;23.124;2022-07-29T00:00:43;97130.56;;;24.13;61.32
39411;BME280;26579;43.238;23.124;2022-07-29T00:03:13;97124.59;;;24.11;61.40
39411;BME280;26579;43.238;23.124;2022-07-29T00:05:40;97129.75;;;24.13;61.57
39411;BME280;26579;43.238;23.124;2022-07-29T00:08:08;97131.19;;;24.09;61.74
39411;BME280;26579;43.238;23.124;2022-07-29T00:10:34;97129.94;;;24.11;61.95
39411;BME280;26579;43.238;23.124;2022-07-29T00:13:00;97134.63;;;24.16;61.63
39411;BME280;26579;43.238;23.124;2022-07-29T00:15:26;97130.53;;;24.20;61.46
39411;BME280;26579;43.238;23.124;2022-07-29T00:17:52;97142.81;;;24.21;61.60
39411;BME280;26579;43.238;23.124;2022-07-29T00:20:18;97140.97;;;24.08;62.17
39411;BME280;26579;43.238;23.124;2022-07-29T00:22:44;97133.22;;;23.93;62.69
39411;BME280;26579;43.238;23.124;2022-07-29T00:25:12;97119.53;;;23.90;62.53
39411;BME280;26579;43.238;23.124;2022-07-29T00:27:38;97124.22;;;23.88;62.94
39411;BME280;26579;43.238;23.124;2022-07-29T00:30:05;97126.88;;;23.88;62.87
39411;BME280;26579;43.238;23.124;2022-07-29T00:32:31;97128.72;;;23.87;63.00
39411;BME280;26579;43.238;23.124;2022-07-29T00:34:57;97135.06;;;23.93;62.65
39411;BME280;26579;43.238;23.124;2022-07-29T00:37:23;97138.13;;;23.97;63.04
39411;BME280;26579;43.238;23.124;2022-07-29T00:39:49;97132.63;;;23.85;62.67
39411;BME280;26579;43.238;23.124;2022-07-29T00:42:15;97131.59;;;23.86;62.65
39411;BME280;26579;43.238;23.124;2022-07-29T00:44:41;97136.31;;;23.97;62.56
39411;BME280;26579;43.238;23.124;2022-07-29T00:47:09;97134.88;;;23.94;62.79
39411;BME280;26579;43.238;23.124;2022-07-29T00:49:35;97111.78;;;23.88;62.71
39411;BME280;26579;43.238;23.124;2022-07-29T00:52:02;97126.88;;;24.01;62.36
39411;BME280;26579;43.238;23.124;2022-07-29T00:54:28;97125.25;;;24.00;62.77
39411;BME280;26579;43.238;23.124;2022-07-29T00:56:56;97116.47;;;23.93;62.59
39411;BME280;26579;43.238;23.124;2022-07-29T00:59:23;97131.41;;;23.94;62.51
39411;BME280;26579;43.238;23.124;2022-07-29T01:01:49;97124.66;;;23.91;62.59
39411;BME280;26579;43.238;23.124;2022-07-29T01:04:14;97124.47;;;23.80;63.04
39411;BME280;26579;43.238;23.124;2022-07-29T01:06:41;97124.22;;;23.81;62.93
39411;BME280;26579;43.238;23.124;2022-07-29T01:09:07;97117.50;;;23.85;62.91
39411;BME280;26579;43.238;23.124;2022-07-29T01:11:34;97115.44;;;23.87;62.54
39411;BME280;26579;43.238;23.124;2022-07-29T01:14:07;97120.97;;;23.92;62.98
39411;BME280;26579;43.238;23.124;2022-07-29T01:16:59;97116.88;;;23.90;62.87
39411;BME280;26579;43.238;23.124;2022-07-29T01:19:48;97112.78;;;23.87;63.16
39411;BME280;26579;43.238;23.124;2022-07-29T01:25:17;97113.19;;;23.98;62.66
39411;BME280;26579;43.238;23.124;2022-07-29T01:28:17;97101.31;;;23.93;62.71
39411;BME280;26579;43.238;23.124;2022-07-29T01:30:50;97102.16;;;24.01;62.81
39411;BME280;26579;43.238;23.124;2022-07-29T01:33:17;97102.72;;;24.03;62.56
39411;BME280;26579;43.238;23.124;2022-07-29T01:35:45;97102.34;;;24.06;62.69
39411;BME280;26579;43.238;23.124;2022-07-29T01:38:22;97090.88;;;23.99;62.72
39411;BME280;26579;43.238;23.124;2022-07-29T01:40:58;97070.84;;;23.96;62.61
39411;BME280;26579;43.238;23.124;2022-07-29T01:43:32;97076.97;;;23.97;62.67
39411;BME280;26579;43.238;23.124;2022-07-29T01:46:06;97081.28;;;23.98;62.88
39411;BME280;26579;43.238;23.124;2022-07-29T01:48:37;97074.53;;;23.95;62.52
39411;BME280;26579;43.238;23.124;2022-07-29T01:51:16;97073.91;;;24.00;62.90
39411;BME280;26579;43.238;23.124;2022-07-29T01:54:08;97081.88;;;24.00;63.25
39411;BME280;26579;43.238;23.124;2022-07-29T01:56:37;97045.53;;;23.80;63.15
39411;BME280;26579;43.238;23.124;2022-07-29T01:59:06;97071.06;;;23.94;63.44
39411;BME280;26579;43.238;23.124;2022-07-29T02:01:33;97070.44;;;23.92;63.60
39411;BME280;26579;43.238;23.124;2022-07-29T02:04:03;97056.75;;;23.82;63.47
39411;BME280;26579;43.238;23.124;2022-07-29T02:06:32;97057.16;;;23.79;63.81
39411;BME280;26579;43.238;23.124;2022-07-29T02:08:59;97064.34;;;23.85;64.20
39411;BME280;26579;43.238;23.124;2022-07-29T02:11:26;97028.34;;;23.63;64.06
39411;BME280;26579;43.238;23.124;2022-07-29T02:13:54;97048.38;;;23.72;64.49
39411;BME280;26579;43.238;23.124;2022-07-29T02:16:22;97042.25;;;23.71;64.30
39411;BME280;26579;43.238;23.124;2022-07-29T02:18:51;97042.84;;;23.60;64.58
39411;BME280;26579;43.238;23.124;2022-07-29T02:21:21;97044.88;;;23.65;64.63
39411;BME280;26579;43.238;23.124;2022-07-29T02:23:49;97045.91;;;23.64;64.54
39411;BME280;26579;43.238;23.124;2022-07-29T02:26:17;97047.94;;;23.62;64.68
39411;BME280;26579;43.238;23.124;2022-07-29T02:28:46;97035.50;;;23.62;64.64
39411;BME280;26579;43.238;23.124;2022-07-29T02:31:13;97033.66;;;23.63;64.28
39411;BME280;26579;43.238;23.124;2022-07-29T02:33:40;97037.94;;;23.57;64.43
39411;BME280;26579;43.238;23.124;2022-07-29T02:36:06;97041.00;;;23.61;64.81
39411;BME280;26579;43.238;23.124;2022-07-29T02:38:35;97035.28;;;23.44;65.30
39411;BME280;26579;43.238;23.124;2022-07-29T02:41:05;97045.50;;;23.40;65.59
39411;BME280;26579;43.238;23.124;2022-07-29T02:43:34;97040.41;;;23.39;65.46
39411;BME280;26579;43.238;23.124;2022-07-29T02:46:03;97048.97;;;23.41;65.54
39411;BME280;26579;43.238;23.124;2022-07-29T02:48:46;97034.47;;;23.30;65.54
39411;BME280;26579;43.238;23.124;2022-07-29T02:51:46;97049.38;;;23.38;65.47
39411;BME280;26579;43.238;23.124;2022-07-29T02:54:42;97038.75;;;23.31;65.55
39411;BME280;26579;43.238;23.124;2022-07-29T02:57:37;97034.06;;;23.33;65.36
39411;BME280;26579;43.238;23.124;2022-07-29T03:00:09;97039.78;;;23.30;65.59
39411;BME280;26579;43.238;23.124;2022-07-29T03:02:39;97035.69;;;23.27;65.46
39411;BME280;26579;43.238;23.124;2022-07-29T03:05:08;97054.28;;;23.34;65.36
39411;BME280;26579;43.238;23.124;2022-07-29T03:07:35;97042.22;;;23.38;65.41
39411;BME280;26579;43.238;23.124;2022-07-29T03:10:02;97041.19;;;23.33;65.36
39411;BME280;26579;43.238;23.124;2022-07-29T03:12:29;97050.81;;;23.34;65.56
39411;BME280;26579;43.238;23.124;2022-07-29T03:14:56;97039.56;;;23.32;65.55
39411;BME280;26579;43.238;23.124;2022-07-29T03:17:23;97040.00;;;23.42;64.94
39411;BME280;26579;43.238;23.124;2022-07-29T03:19:49;97059.81;;;23.46;65.18
39411;BME280;26579;43.238;23.124;2022-07-29T03:22:15;97056.53;;;23.44;65.00
39411;BME280;26579;43.238;23.124;2022-07-29T03:24:41;97051.22;;;23.44;64.74
39411;BME280;26579;43.238;23.124;2022-07-29T03:27:06;97055.53;;;23.45;64.81
39411;BME280;26579;43.238;23.124;2022-07-29T03:29:32;97064.94;;;23.47;65.01
39411;BME280;26579;43.238;23.124;2022-07-29T03:31:58;97056.97;;;23.54;64.60
39411;BME280;26579;43.238;23.124;2022-07-29T03:34:24;97059.22;;;23.57;64.52
39411;BME280;26579;43.238;23.124;2022-07-29T03:36:50;97058.97;;;23.59;64.78
39411;BME280;26579;43.238;23.124;2022-07-29T03:39:21;97050.63;;;23.55;64.60
39411;BME280;26579;43.238;23.124;2022-07-29T03:41:51;97062.47;;;23.59;64.46
39411;BME280;26579;43.238;23.124;2022-07-29T03:44:18;97059.81;;;23.53;64.83
39411;BME280;26579;43.238;23.124;2022-07-29T03:46:47;97063.91;;;23.48;64.96
39411;BME280;26579;43.238;23.124;2022-07-29T03:49:14;97068.41;;;23.55;65.14
39411;BME280;26579;43.238;23.124;2022-07-29T03:51:41;97070.84;;;23.49;64.87
39411;BME280;26579;43.238;23.124;2022-07-29T03:54:08;97073.72;;;23.55;64.74
39411;BME280;26579;43.238;23.124;2022-07-29T03:56:40;97066.56;;;23.48;64.92
39411;BME280;26579;43.238;23.124;2022-07-29T03:59:07;97067.59;;;23.47;64.82
39411;BME280;26579;43.238;23.124;2022-07-29T04:01:34;97067.78;;;23.53;64.82
39411;BME280;26579;43.238;23.124;2022-07-29T04:04:01;97073.13;;;23.59;64.87
39411;BME280;26579;43.238;23.124;2022-07-29T04:06:27;97074.94;;;23.59;64.78
39411;BME280;26579;43.238;23.124;2022-07-29T04:08:53;97062.88;;;23.63;64.69
39411;BME280;26579;43.238;23.124;2022-07-29T04:11:19;97072.28;;;23.65;64.95
39411;BME280;26579;43.238;23.124;2022-07-29T04:13:44;97077.19;;;23.68;64.76
39411;BME280;26579;43.238;23.124;2022-07-29T04:16:10;97060.63;;;23.66;64.63
39411;BME280;26579;43.238;23.124;2022-07-29T04:18:36;97075.75;;;23.79;64.23
39411;BME280;26579;43.238;23.124;2022-07-29T04:21:01;97062.69;;;23.84;64.13
39411;BME280;26579;43.238;23.124;2022-07-29T04:23:29;97069.25;;;23.88;64.11
39411;BME280;26579;43.238;23.124;2022-07-29T04:25:55;97074.56;;;23.75;64.98
39411;BME280;26579;43.238;23.124;2022-07-29T04:28:21;97066.97;;;23.79;64.99
39411;BME280;26579;43.238;23.124;2022-07-29T04:30:46;97074.53;;;23.82;64.57
39411;BME280;26579;43.238;23.124;2022-07-29T04:33:12;97068.81;;;23.85;64.45
39411;BME280;26579;43.238;23.124;2022-07-29T04:35:38;97075.56;;;24.01;64.07
39411;BME280;26579;43.238;23.124;2022-07-29T04:38:05;97069.84;;;23.97;64.22
39411;BME280;26579;43.238;23.124;2022-07-29T04:40:31;97081.06;;;24.06;63.71
39411;BME280;26579;43.238;23.124;2022-07-29T04:42:57;97079.44;;;23.98;64.22
39411;BME280;26579;43.238;23.124;2022-07-29T04:45:22;97073.91;;;24.06;63.50
39411;BME280;26579;43.238;23.124;2022-07-29T04:47:49;97078.19;;;24.07;63.56
39411;BME280;26579;43.238;23.124;2022-07-29T04:50:15;97087.59;;;24.10;63.75
39411;BME280;26579;43.238;23.124;2022-07-29T04:52:40;97085.75;;;24.10;63.66
39411;BME280;26579;43.238;23.124;2022-07-29T04:55:06;97083.72;;;24.12;63.89
39411;BME280;26579;43.238;23.124;2022-07-29T04:57:32;97082.06;;;24.11;63.60
39411;BME280;26579;43.238;23.124;2022-07-29T04:59:58;97082.88;;;24.05;63.98
39411;BME280;26579;43.238;23.124;2022-07-29T05:02:23;97083.53;;;24.01;64.26
39411;BME280;26579;43.238;23.124;2022-07-29T05:04:49;97091.25;;;24.22;64.70
39411;BME280;26579;43.238;23.124;2022-07-29T05:07:15;97092.06;;;24.23;64.82
39411;BME280;26579;43.238;23.124;2022-07-29T05:09:40;97097.63;;;24.14;64.30
39411;BME280;26579;43.238;23.124;2022-07-29T05:12:06;97093.72;;;24.10;64.34
39411;BME280;26579;43.238;23.124;2022-07-29T05:14:32;97093.34;;;24.07;64.16
39411;BME280;26579;43.238;23.124;2022-07-29T05:16:58;97092.31;;;24.08;64.16
39411;BME280;26579;43.238;23.124;2022-07-29T05:19:24;97095.78;;;24.08;64.30
39411;BME280;26579;43.238;23.124;2022-07-29T05:21:50;97105.00;;;24.06;64.78
39411;BME280;26579;43.238;23.124;2022-07-29T05:24:16;97108.28;;;24.01;64.83
39411;BME280;26579;43.238;23.124;2022-07-29T05:26:42;97107.06;;;23.97;64.52
39411;BME280;26579;43.238;23.124;2022-07-29T05:29:07;97118.28;;;23.99;64.96
39411;BME280;26579;43.238;23.124;2022-07-29T05:31:33;97120.94;;;23.99;64.78
39411;BME280;26579;43.238;23.124;2022-07-29T05:33:59;97127.69;;;24.02;64.65
39411;BME280;26579;43.238;23.124;2022-07-29T05:36:25;97123.19;;;24.02;64.54
39411;BME280;26579;43.238;23.124;2022-07-29T05:38:51;97122.19;;;24.03;64.70
39411;BME280;26579;43.238;23.124;2022-07-29T05:41:18;97119.31;;;23.98;64.48
39411;BME280;26579;43.238;23.124;2022-07-29T05:43:43;97124.66;;;23.98;64.56
39411;BME280;26579;43.238;23.124;2022-07-29T05:46:09;97129.75;;;24.00;64.59
39411;BME280;26579;43.238;23.124;2022-07-29T05:48:35;97138.94;;;24.10;64.61
39411;BME280;26579;43.238;23.124;2022-07-29T05:51:01;97132.81;;;24.10;64.22
39411;BME280;26579;43.238;23.124;2022-07-29T05:53:26;97145.28;;;24.16;64.33
39411;BME280;26579;43.238;23.124;2022-07-29T05:55:52;97134.25;;;24.06;64.34
39411;BME280;26579;43.238;23.124;2022-07-29T05:58:18;97145.09;;;24.17;63.91
39411;BME280;26579;43.238;23.124;2022-07-29T06:00:45;97134.66;;;24.09;64.14
39411;BME280;26579;43.238;23.124;2022-07-29T06:03:11;97137.31;;;24.03;64.60
39411;BME280;26579;43.238;23.124;2022-07-29T06:05:37;97142.63;;;24.09;64.72
39411;BME280;26579;43.238;23.124;2022-07-29T06:08:03;97138.53;;;24.13;64.36
39411;BME280;26579;43.238;23.124;2022-07-29T06:10:29;97132.59;;;24.05;63.98
39411;BME280;26579;43.238;23.124;2022-07-29T06:12:54;97142.44;;;24.17;64.01
39411;BME280;26579;43.238;23.124;2022-07-29T06:15:20;97144.44;;;24.22;63.83
39411;BME280;26579;43.238;23.124;2022-07-29T06:17:46;97131.38;;;24.21;63.99
39411;BME280;26579;43.238;23.124;2022-07-29T06:20:11;97139.78;;;24.17;64.22
39411;BME280;26579;43.238;23.124;2022-07-29T06:22:37;97133.81;;;24.15;63.90
39411;BME280;26579;43.238;23.124;2022-07-29T06:25:03;97138.28;;;24.28;63.64
39411;BME280;26579;43.238;23.124;2022-07-29T06:27:29;97139.72;;;24.37;62.90
39411;BME280;26579;43.238;23.124;2022-07-29T06:29:56;97136.66;;;24.47;62.83
39411;BME280;26579;43.238;23.124;2022-07-29T06:32:22;97129.69;;;24.53;63.05
39411;BME280;26579;43.238;23.124;2022-07-29T06:34:47;97136.28;;;24.44;62.71
39411;BME280;26579;43.238;23.124;2022-07-29T06:37:13;97121.13;;;24.44;62.18
39411;BME280;26579;43.238;23.124;2022-07-29T06:39:39;97135.81;;;24.40;62.93
39411;BME280;26579;43.238;23.124;2022-07-29T06:42:05;97127.03;;;24.53;62.73
39411;BME280;26579;43.238;23.124;2022-07-29T06:44:31;97125.59;;;24.50;62.24
39411;BME280;26579;43.238;23.124;2022-07-29T06:46:57;97134.19;;;24.52;62.67
39411;BME280;26579;43.238;23.124;2022-07-29T06:49:23;97133.78;;;24.42;62.59
39411;BME280;26579;43.238;23.124;2022-07-29T06:51:48;97123.97;;;24.43;62.78
39411;BME280;26579;43.238;23.124;2022-07-29T06:54:14;97124.38;;;24.33;63.12
39411;BME280;26579;43.238;23.124;2022-07-29T06:56:40;97135.41;;;24.36;63.18
39411;BME280;26579;43.238;23.124;2022-07-29T06:59:07;97124.56;;;24.31;62.88
39411;BME280;26579;43.238;23.124;2022-07-29T07:01:33;97126.84;;;24.48;63.24
39411;BME280;26579;43.238;23.124;2022-07-29T07:03:58;97129.06;;;24.51;63.88
39411;BME280;26579;43.238;23.124;2022-07-29T07:06:24;97117.81;;;24.49;62.45
39411;BME280;26579;43.238;23.124;2022-07-29T07:08:50;97119.22;;;24.65;62.75
39411;BME280;26579;43.238;23.124;2022-07-29T07:11:16;97115.91;;;24.76;62.61
39411;BME280;26579;43.238;23.124;2022-07-29T07:13:41;97125.88;;;24.87;61.76
39411;BME280;26579;43.238;23.124;2022-07-29T07:16:07;97120.28;;;25.02;61.59
39411;BME280;26579;43.238;23.124;2022-07-29T07:18:33;97114.72;;;25.03;60.71
39411;BME280;26579;43.238;23.124;2022-07-29T07:20:58;97113.69;;;25.04;60.89
39411;BME280;26579;43.238;23.124;2022-07-29T07:23:24;97114.22;;;25.26;60.77
39411;BME280;26579;43.238;23.124;2022-07-29T07:25:50;97112.63;;;25.50;60.38
39411;BME280;26579;43.238;23.124;2022-07-29T07:28:16;97105.94;;;25.66;59.92
39411;BME280;26579;43.238;23.124;2022-07-29T07:30:41;97103.75;;;25.82;59.26
39411;BME280;26579;43.238;23.124;2022-07-29T07:33:07;97113.38;;;25.89;58.81
39411;BME280;26579;43.238;23.124;2022-07-29T07:35:33;97113.41;;;25.83;59.16
39411;BME280;26579;43.238;23.124;2022-07-29T07:37:59;97113.00;;;25.79;59.25
39411;BME280;26579;43.238;23.124;2022-07-29T07:40:25;97103.03;;;25.74;59.27
39411;BME280;26579;43.238;23.124;2022-07-29T07:42:50;97118.72;;;25.89;59.09
39411;BME280;26579;43.238;23.124;2022-07-29T07:45:16;97110.28;;;25.92;58.27
39411;BME280;26579;43.238;23.124;2022-07-29T07:47:42;97113.91;;;25.98;58.66
39411;BME280;26579;43.238;23.124;2022-07-29T07:50:09;97117.34;;;26.05;57.74
39411;BME280;26579;43.238;23.124;2022-07-29T07:52:46;97120.03;;;26.24;57.47
39411;BME280;26579;43.238;23.124;2022-07-29T07:55:12;97109.06;;;26.13;57.18
39411;BME280;26579;43.238;23.124;2022-07-29T07:57:37;97103.91;;;26.12;57.28
39411;BME280;26579;43.238;23.124;2022-07-29T08:00:04;97107.13;;;26.20;57.56
39411;BME280;26579;43.238;23.124;2022-07-29T08:02:37;97116.91;;;26.27;57.34
39411;BME280;26579;43.238;23.124;2022-07-29T08:05:03;97121.16;;;26.34;57.28
39411;BME280;26579;43.238;23.124;2022-07-29T08:07:29;97117.75;;;26.46;57.85
39411;BME280;26579;43.238;23.124;2022-07-29T08:09:55;97113.56;;;26.56;56.39
39411;BME280;26579;43.238;23.124;2022-07-29T08:12:20;97117.47;;;26.72;56.43
39411;BME280;26579;43.238;23.124;2022-07-29T08:14:46;97112.78;;;26.86;55.97
39411;BME280;26579;43.238;23.124;2022-07-29T08:17:12;97109.34;;;26.97;55.30
39411;BME280;26579;43.238;23.124;2022-07-29T08:19:37;97105.53;;;27.05;54.98
39411;BME280;26579;43.238;23.124;2022-07-29T08:22:03;97106.50;;;27.29;54.70
39411;BME280;26579;43.238;23.124;2022-07-29T08:24:29;97106.88;;;27.44;53.84
39411;BME280;26579;43.238;23.124;2022-07-29T08:26:54;97108.75;;;27.56;53.73
39411;BME280;26579;43.238;23.124;2022-07-29T08:29:20;97104.69;;;27.65;53.69
39411;BME280;26579;43.238;23.124;2022-07-29T08:31:46;97114.19;;;27.79;53.32
39411;BME280;26579;43.238;23.124;2022-07-29T08:34:11;97102.84;;;27.77;52.63
39411;BME280;26579;43.238;23.124;2022-07-29T08:36:37;97117.66;;;27.91;53.04
39411;BME280;26579;43.238;23.124;2022-07-29T08:39:03;97111.16;;;27.99;52.64
39411;BME280;26579;43.238;23.124;2022-07-29T08:41:29;97120.81;;;28.12;51.89
39411;BME280;26579;43.238;23.124;2022-07-29T08:43:55;97107.09;;;28.20;52.10
39411;BME280;26579;43.238;23.124;2022-07-29T08:46:21;97117.81;;;28.43;50.66
39411;BME280;26579;43.238;23.124;2022-07-29T08:48:47;97117.31;;;28.35;50.07
39411;BME280;26579;43.238;23.124;2022-07-29T08:51:18;97113.50;;;28.31;50.06
39411;BME280;26579;43.238;23.124;2022-07-29T08:53:46;97111.97;;;28.23;50.03
39411;BME280;26579;43.238;23.124;2022-07-29T08:56:14;97108.47;;;28.34;50.33
39411;BME280;26579;43.238;23.124;2022-07-29T08:58:40;97110.81;;;28.42;50.34
39411;BME280;26579;43.238;23.124;2022-07-29T09:01:07;97098.25;;;28.43;50.40
39411;BME280;26579;43.238;23.124;2022-07-29T09:03:35;97109.59;;;28.62;50.46
39411;BME280;26579;43.238;23.124;2022-07-29T09:06:03;97101.31;;;28.75;50.17
39411;BME280;26579;43.238;23.124;2022-07-29T09:08:31;97097.31;;;28.89;49.29
39411;BME280;26579;43.238;23.124;2022-07-29T09:10:57;97108.13;;;28.95;48.25
39411;BME280;26579;43.238;23.124;2022-07-29T09:13:24;97097.41;;;28.95;47.88
39411;BME280;26579;43.238;23.124;2022-07-29T09:15:49;97104.88;;;28.93;47.96
39411;BME280;26579;43.238;23.124;2022-07-29T09:20:59;97097.91;;;28.92;49.26
39411;BME280;26579;43.238;23.124;2022-07-29T09:23:25;97106.41;;;29.17;48.13
39411;BME280;26579;43.238;23.124;2022-07-29T09:25:51;97095.69;;;29.17;47.26
39411;BME280;26579;43.238;23.124;2022-07-29T09:28:17;97099.09;;;29.41;46.75
39411;BME280;26579;43.238;23.124;2022-07-29T09:30:57;97096.47;;;29.29;48.67
39411;BME280;26579;43.238;23.124;2022-07-29T09:33:25;97095.00;;;29.22;47.49
39411;BME280;26579;43.238;23.124;2022-07-29T09:36:07;97094.03;;;29.28;48.02
39411;BME280;26579;43.238;23.124;2022-07-29T09:38:34;97088.34;;;29.24;47.89
39411;BME280;26579;43.238;23.124;2022-07-29T09:41:02;97080.44;;;29.18;49.36
39411;BME280;26579;43.238;23.124;2022-07-29T09:43:28;97087.59;;;29.29;48.23
39411;BME280;26579;43.238;23.124;2022-07-29T09:45:54;97078.19;;;29.43;47.25
39411;BME280;26579;43.238;23.124;2022-07-29T09:48:22;97059.69;;;29.59;47.73
39411;BME280;26579;43.238;23.124;2022-07-29T09:50:48;97079.53;;;29.74;46.22
39411;BME280;26579;43.238;23.124;2022-07-29T09:53:35;97068.00;;;29.74;47.06
39411;BME280;26579;43.238;23.124;2022-07-29T09:56:01;97054.81;;;29.89;46.65
39411;BME280;26579;43.238;23.124;2022-07-29T09:58:27;97063.53;;;30.18;47.02
39411;BME280;26579;43.238;23.124;2022-07-29T10:00:54;97041.59;;;30.21;46.71
39411;BME280;26579;43.238;23.124;2022-07-29T10:03:21;97054.97;;;30.38;46.80
39411;BME280;26579;43.238;23.124;2022-07-29T10:06:07;97053.34;;;30.37;46.46
39411;BME280;26579;43.238;23.124;2022-07-29T10:08:34;97048.53;;;30.39;46.05
39411;BME280;26579;43.238;23.124;2022-07-29T10:11:14;97048.34;;;30.46;45.72
39411;BME280;26579;43.238;23.124;2022-07-29T10:13:41;97044.59;;;30.47;46.50
39411;BME280;26579;43.238;23.124;2022-07-29T10:16:08;97040.78;;;30.65;45.21
39411;BME280;26579;43.238;23.124;2022-07-29T10:18:35;97044.97;;;30.78;45.00
39411;BME280;26579;43.238;23.124;2022-07-29T10:21:01;97038.72;;;30.72;44.25
39411;BME280;26579;43.238;23.124;2022-07-29T10:23:28;97033.22;;;30.62;45.06
39411;BME280;26579;43.238;23.124;2022-07-29T10:25:55;97045.28;;;30.37;45.16
39411;BME280;26579;43.238;23.124;2022-07-29T10:28:21;97043.78;;;30.47;45.60
39411;BME280;26579;43.238;23.124;2022-07-29T10:30:51;97034.44;;;30.49;45.75
39411;BME280;26579;43.238;23.124;2022-07-29T10:41:47;97032.72;;;30.87;45.29
39411;BME280;26579;43.238;23.124;2022-07-29T10:44:08;97022.31;;;30.96;44.62
39411;BME280;26579;43.238;23.124;2022-07-29T10:46:39;97023.56;;;31.15;45.22
39411;BME280;26579;43.238;23.124;2022-07-29T10:49:18;97026.94;;;31.27;43.95
39411;BME280;26579;43.238;23.124;2022-07-29T10:57:17;97023.53;;;31.37;44.14
39411;BME280;26579;43.238;23.124;2022-07-29T10:59:44;97011.31;;;31.29;43.82
39411;BME280;26579;43.238;23.124;2022-07-29T11:07:24;97010.47;;;31.56;44.03
39411;BME280;26579;43.238;23.124;2022-07-29T11:15:04;97009.44;;;31.57;42.42
39411;BME280;26579;43.238;23.124;2022-07-29T11:34:27;97003.00;;;32.06;41.55
39411;BME280;26579;43.238;23.124;2022-07-29T11:45:09;96996.50;;;31.96;40.89
39411;BME280;26579;43.238;23.124;2022-07-29T11:47:37;97008.13;;;32.07;41.60
39411;BME280;26579;43.238;23.124;2022-07-29T11:50:06;96992.53;;;32.14;41.45
39411;BME280;26579;43.238;23.124;2022-07-29T11:52:37;96992.59;;;32.24;40.98
39411;BME280;26579;43.238;23.124;2022-07-29T11:55:04;96981.59;;;32.36;40.78
39411;BME280;26579;43.238;23.124;2022-07-29T11:57:31;96990.84;;;32.56;40.14
39411;BME280;26579;43.238;23.124;2022-07-29T11:59:57;96997.34;;;32.75;39.83
39411;BME280;26579;43.238;23.124;2022-07-29T12:02:23;96996.91;;;33.04;41.33
39411;BME280;26579;43.238;23.124;2022-07-29T12:04:50;96992.88;;;33.11;40.21
39411;BME280;26579;43.238;23.124;2022-07-29T12:07:17;96981.28;;;33.26;39.67
39411;BME280;26579;43.238;23.124;2022-07-29T12:09:52;96982.91;;;33.22;39.40
39411;BME280;26579;43.238;23.124;2022-07-29T12:12:20;96983.69;;;33.33;39.55
39411;BME280;26579;43.238;23.124;2022-07-29T12:14:46;96976.13;;;33.35;38.71
39411;BME280;26579;43.238;23.124;2022-07-29T12:19:54;96976.41;;;33.13;39.68
39411;BME280;26579;43.238;23.124;2022-07-29T12:22:33;96978.00;;;32.99;39.40
39411;BME280;26579;43.238;23.124;2022-07-29T12:25:13;96967.47;;;32.92;40.12
39411;BME280;26579;43.238;23.124;2022-07-29T12:27:39;96975.81;;;32.80;39.76
39411;BME280;26579;43.238;23.124;2022-07-29T12:30:07;96969.34;;;32.86;40.12
39411;BME280;26579;43.238;23.124;2022-07-29T12:32:34;96970.97;;;32.92;39.65
39411;BME280;26579;43.238;23.124;2022-07-29T12:35:09;96971.56;;;33.20;39.85
39411;BME280;26579;43.238;23.124;2022-07-29T12:37:37;96960.50;;;33.32;39.98
39411;BME280;26579;43.238;23.124;2022-07-29T12:40:05;96958.88;;;33.31;39.13
39411;BME280;26579;43.238;23.124;2022-07-29T12:42:31;96959.94;;;33.30;38.31
39411;BME280;26579;43.238;23.124;2022-07-29T12:44:57;96956.72;;;33.48;38.49
39411;BME280;26579;43.238;23.124;2022-07-29T12:47:23;96948.88;;;33.36;38.45
39411;BME280;26579;43.238;23.124;2022-07-29T12:49:50;96957.00;;;33.26;38.69
39411;BME280;26579;43.238;23.124;2022-07-29T12:52:32;96954.28;;;33.36;39.12
39411;BME280;26579;43.238;23.124;2022-07-29T12:54:59;96946.22;;;33.11;39.16
39411;BME280;26579;43.238;23.124;2022-07-29T12:57:25;96951.28;;;32.92;39.63
39411;BME280;26579;43.238;23.124;2022-07-29T13:02:29;96942.38;;;32.66;39.68
39411;BME280;26579;43.238;23.124;2022-07-29T13:04:58;96943.19;;;32.87;39.43
39411;BME280;26579;43.238;23.124;2022-07-29T13:07:26;96946.22;;;33.06;38.50
39411;BME280;26579;43.238;23.124;2022-07-29T13:09:52;96932.69;;;32.90;38.49
39411;BME280;26579;43.238;23.124;2022-07-29T13:12:20;96939.97;;;32.80;38.80
39411;BME280;26579;43.238;23.124;2022-07-29T13:14:47;96946.13;;;32.60;39.43
39411;BME280;26579;43.238;23.124;2022-07-29T13:17:14;96928.03;;;32.45;39.48
39411;BME280;26579;43.238;23.124;2022-07-29T13:22:11;96920.00;;;32.65;39.79
39411;BME280;26579;43.238;23.124;2022-07-29T13:24:53;96930.28;;;32.94;39.34
39411;BME280;26579;43.238;23.124;2022-07-29T13:27:21;96926.78;;;32.99;38.37
39411;BME280;26579;43.238;23.124;2022-07-29T13:29:47;96928.41;;;33.10;38.26
39411;BME280;26579;43.238;23.124;2022-07-29T13:32:13;96922.75;;;33.11;38.22
39411;BME280;26579;43.238;23.124;2022-07-29T13:34:39;96928.13;;;33.27;38.10
39411;BME280;26579;43.238;23.124;2022-07-29T13:37:05;96922.97;;;33.46;38.16
39411;BME280;26579;43.238;23.124;2022-07-29T13:39:31;96914.31;;;33.64;38.26
39411;BME280;26579;43.238;23.124;2022-07-29T13:41:57;96921.63;;;33.69;37.30
39411;BME280;26579;43.238;23.124;2022-07-29T13:44:23;96926.47;;;33.67;37.63
39411;BME280;26579;43.238;23.124;2022-07-29T13:46:48;96921.84;;;33.77;37.61
39411;BME280;26579;43.238;23.124;2022-07-29T13:49:14;96917.78;;;33.80;36.51
39411;BME280;26579;43.238;23.124;2022-07-29T13:51:40;96908.63;;;33.71;36.66
39411;BME280;26579;43.238;23.124;2022-07-29T13:54:05;96918.91;;;33.69;36.35
39411;BME280;26579;43.238;23.124;2022-07-29T13:56:31;96912.72;;;33.58;36.59